createdAt,value
2023-01-20T00:01:15.883Z,4.24
2023-01-20T00:03:44.631Z,4.20
2023-01-20T00:06:13.154Z,4.19
2023-01-20T00:08:41.399Z,4.19
2023-01-20T00:11:10.461Z,4.22
2023-01-20T00:13:38.124Z,3.88
2023-01-20T00:16:09.507Z,3.76
2023-01-20T00:18:37.679Z,3.76
2023-01-20T00:21:06.268Z,3.39
2023-01-20T00:23:34.296Z,3.62
2023-01-20T00:26:06.193Z,3.52
2023-01-20T00:28:33.990Z,3.61
2023-01-20T00:31:13.325Z,3.70
2023-01-20T00:33:41.291Z,3.42
2023-01-20T00:36:09.735Z,3.47
2023-01-20T00:38:37.512Z,3.70
2023-01-20T00:41:05.629Z,3.65
2023-01-20T00:43:33.290Z,3.56
2023-01-20T00:46:00.902Z,3.33
2023-01-20T00:48:30.018Z,3.20
2023-01-20T00:50:57.505Z,3.07
2023-01-20T00:53:25.036Z,3.22
2023-01-20T00:55:52.497Z,3.37
2023-01-20T00:58:20.046Z,3.27
2023-01-20T01:00:47.956Z,3.27
2023-01-20T01:03:15.721Z,3.27
2023-01-20T01:05:45.089Z,3.23
2023-01-20T01:08:12.979Z,2.94
2023-01-20T01:10:41.124Z,3.19
2023-01-20T01:13:09.268Z,3.09
2023-01-20T01:15:36.883Z,2.98
2023-01-20T01:18:04.546Z,3.09
2023-01-20T01:20:32.456Z,3.07
2023-01-20T01:23:01.295Z,3.08
2023-01-20T01:25:28.806Z,2.84
2023-01-20T01:27:56.475Z,2.98
2023-01-20T01:30:23.993Z,3.13
2023-01-20T01:32:51.526Z,3.27
2023-01-20T01:35:19.042Z,3.14
2023-01-20T01:37:46.547Z,3.08
2023-01-20T01:40:15.629Z,3.16
2023-01-20T01:42:43.232Z,3.31
2023-01-20T01:45:26.238Z,3.32
2023-01-20T01:48:00.096Z,3.32
2023-01-20T01:50:32.936Z,3.50
2023-01-20T01:53:01.177Z,3.61
2023-01-20T01:55:34.384Z,3.66
2023-01-20T01:58:03.939Z,3.73
2023-01-20T02:00:31.611Z,3.49
2023-01-20T02:02:59.598Z,3.73
2023-01-20T02:05:29.367Z,3.91
2023-01-20T02:07:59.184Z,3.87
2023-01-20T02:10:26.790Z,4.03
2023-01-20T02:12:55.988Z,4.07
2023-01-20T02:15:28.104Z,3.92
2023-01-20T02:18:16.625Z,3.93
2023-01-20T02:21:14.458Z,3.94
2023-01-20T02:24:08.742Z,3.65
2023-01-20T02:26:54.509Z,3.35
2023-01-20T02:29:45.968Z,3.27
2023-01-20T02:32:24.539Z,3.23
2023-01-20T02:34:59.776Z,3.46
2023-01-20T02:37:29.873Z,3.54
2023-01-20T02:40:12.363Z,3.68
2023-01-20T02:42:44.445Z,3.57
2023-01-20T02:45:18.340Z,3.69
2023-01-20T02:47:56.299Z,3.76
2023-01-20T02:50:27.739Z,3.74
2023-01-20T02:52:59.555Z,3.81
2023-01-20T02:55:30.755Z,3.95
2023-01-20T02:58:02.944Z,3.97
2023-01-20T03:00:35.143Z,4.01
2023-01-20T03:03:08.489Z,4.04
2023-01-20T03:05:40.878Z,4.03
2023-01-20T03:08:12.834Z,3.99
2023-01-20T03:10:42.735Z,3.99
2023-01-20T03:13:16.252Z,3.97
2023-01-20T03:15:52.914Z,3.82
2023-01-20T03:18:22.135Z,3.72
2023-01-20T03:20:49.705Z,3.83
2023-01-20T03:23:17.285Z,3.80
2023-01-20T03:25:47.001Z,3.74
2023-01-20T03:28:14.964Z,3.79
2023-01-20T03:30:42.544Z,3.86
2023-01-20T03:33:10.836Z,3.88
2023-01-20T03:35:40.746Z,3.93
2023-01-20T03:38:09.954Z,3.75
2023-01-20T03:40:42.868Z,3.70
2023-01-20T03:43:18.168Z,3.51
2023-01-20T03:45:56.146Z,3.41
2023-01-20T03:48:32.532Z,3.46
2023-01-20T03:51:10.423Z,3.56
2023-01-20T03:53:45.301Z,3.47
2023-01-20T03:56:18.019Z,3.46
2023-01-20T03:58:49.766Z,3.61
2023-01-20T04:01:20.103Z,3.58
2023-01-20T04:03:49.992Z,3.57
2023-01-20T04:06:22.406Z,3.59
2023-01-20T04:08:56.412Z,3.68
2023-01-20T04:11:24.270Z,3.71
2023-01-20T04:13:52.046Z,3.72
2023-01-20T04:16:21.216Z,3.78
2023-01-20T04:18:50.437Z,3.86
2023-01-20T04:21:23.180Z,3.78
2023-01-20T04:23:56.223Z,3.81
2023-01-20T04:26:23.746Z,3.95
2023-01-20T04:28:51.245Z,3.84
2023-01-20T04:31:30.170Z,3.74
2023-01-20T04:33:59.013Z,3.83
2023-01-20T04:36:28.010Z,3.90
2023-01-20T04:38:55.509Z,3.82
2023-01-20T04:41:23.041Z,3.90
2023-01-20T04:43:50.720Z,3.90
2023-01-20T04:46:18.218Z,3.82
2023-01-20T04:48:46.153Z,3.72
2023-01-20T04:51:13.906Z,3.77
2023-01-20T04:53:42.893Z,3.80
2023-01-20T04:56:13.052Z,3.71
2023-01-20T04:58:41.040Z,3.70
2023-01-20T05:01:09.454Z,3.76
2023-01-20T05:03:37.648Z,3.80
2023-01-20T05:06:06.184Z,3.80
2023-01-20T05:08:34.276Z,3.76
2023-01-20T05:11:03.163Z,3.84
2023-01-20T05:13:30.792Z,3.97
2023-01-20T05:16:01.859Z,3.94
2023-01-20T05:18:30.344Z,3.97
2023-01-20T05:20:57.819Z,3.92
2023-01-20T05:23:25.317Z,3.98
2023-01-20T05:25:53.518Z,3.91
2023-01-20T05:28:22.670Z,3.90
2023-01-20T05:30:51.527Z,3.88
2023-01-20T05:33:19.149Z,3.93
2023-01-20T05:35:46.703Z,3.96
2023-01-20T05:38:14.382Z,4.01
2023-01-20T05:40:41.907Z,3.97
2023-01-20T05:43:10.287Z,3.95
2023-01-20T05:45:40.439Z,4.02
2023-01-20T05:48:07.971Z,3.99
2023-01-20T05:50:35.485Z,4.01
2023-01-20T05:53:02.996Z,4.08
2023-01-20T05:55:30.482Z,4.08
2023-01-20T05:57:57.931Z,3.97
2023-01-20T06:00:25.612Z,3.86
2023-01-20T06:02:54.500Z,3.95
2023-01-20T06:05:22.033Z,3.88
2023-01-20T06:07:49.597Z,3.99
2023-01-20T06:10:17.975Z,3.96
2023-01-20T06:12:45.443Z,3.82
2023-01-20T06:15:13.422Z,3.86
2023-01-20T06:17:41.028Z,3.81
2023-01-20T06:20:11.753Z,3.64
2023-01-20T06:22:39.415Z,3.61
2023-01-20T06:25:07.419Z,3.53
2023-01-20T06:27:34.963Z,3.60
2023-01-20T06:30:02.454Z,3.53
2023-01-20T06:32:29.923Z,3.52
2023-01-20T06:34:57.395Z,3.60
2023-01-20T06:37:26.250Z,3.62
2023-01-20T06:39:53.822Z,3.46
2023-01-20T06:42:21.303Z,3.48
2023-01-20T06:44:48.825Z,3.47
2023-01-20T06:47:16.379Z,3.35
2023-01-20T06:49:43.849Z,3.42
2023-01-20T06:52:11.382Z,3.48
2023-01-20T06:54:40.276Z,3.54
2023-01-20T06:57:07.737Z,3.60
2023-01-20T06:59:35.221Z,3.50
2023-01-20T07:02:02.822Z,3.48
2023-01-20T07:04:30.339Z,3.56
2023-01-20T07:06:57.815Z,3.62
2023-01-20T07:09:25.323Z,3.56
2023-01-20T07:11:54.149Z,3.54
2023-01-20T07:14:22.041Z,3.43
2023-01-20T07:16:49.579Z,3.41
2023-01-20T07:19:17.162Z,3.43
2023-01-20T07:21:44.626Z,3.36
2023-01-20T07:24:12.092Z,3.38
2023-01-20T07:26:39.573Z,3.52
2023-01-20T07:29:08.408Z,3.67
2023-01-20T07:31:35.910Z,3.69
2023-01-20T07:34:03.499Z,3.70
2023-01-20T07:36:31.233Z,3.77
2023-01-20T07:38:58.770Z,3.92
2023-01-20T07:41:26.350Z,3.91
2023-01-20T07:43:54.402Z,3.91
2023-01-20T07:46:23.237Z,4.00
2023-01-20T07:48:50.929Z,4.04
2023-01-20T07:51:18.646Z,4.12
2023-01-20T07:53:48.066Z,4.06
2023-01-20T07:56:17.108Z,4.12
2023-01-20T07:58:45.794Z,4.13
2023-01-20T08:01:15.460Z,4.17
2023-01-20T08:03:45.183Z,4.19
2023-01-20T08:06:15.330Z,4.19
2023-01-20T08:08:43.224Z,4.18
2023-01-20T08:11:13.765Z,4.17
2023-01-20T08:13:41.779Z,4.26
2023-01-20T08:16:11.570Z,4.16
2023-01-20T08:18:39.649Z,4.14
2023-01-20T08:21:17.418Z,4.06
2023-01-20T08:23:44.910Z,3.95
2023-01-20T08:26:12.364Z,3.90
2023-01-20T08:28:39.979Z,3.83
2023-01-20T08:31:09.793Z,3.64
2023-01-20T08:33:37.936Z,3.62
2023-01-20T08:36:11.745Z,3.59
2023-01-20T08:38:40.154Z,3.59
2023-01-20T08:41:08.675Z,3.53
2023-01-20T08:43:36.194Z,3.66
2023-01-20T08:46:07.432Z,3.71
2023-01-20T08:48:35.207Z,3.82
2023-01-20T08:51:05.184Z,3.82
2023-01-20T08:53:34.032Z,3.67
2023-01-20T08:56:03.297Z,3.72
2023-01-20T08:58:31.467Z,3.64
2023-01-20T09:00:59.291Z,3.54
2023-01-20T09:03:27.467Z,3.57
2023-01-20T09:05:54.970Z,3.63
2023-01-20T09:08:26.798Z,3.59
2023-01-20T09:10:57.413Z,3.52
2023-01-20T09:13:24.880Z,3.49
2023-01-20T09:15:53.344Z,3.54
2023-01-20T09:18:20.817Z,3.51
2023-01-20T09:20:48.318Z,3.59
2023-01-20T09:23:15.835Z,3.54
2023-01-20T09:25:43.306Z,3.54
2023-01-20T09:28:14.120Z,3.53
2023-01-20T09:30:42.666Z,3.61
2023-01-20T09:33:11.053Z,3.69
2023-01-20T09:35:38.661Z,3.74
2023-01-20T09:38:24.353Z,3.74
2023-01-20T09:41:18.514Z,3.84
2023-01-20T09:43:58.353Z,3.95
2023-01-20T09:46:37.429Z,3.90
2023-01-20T09:49:36.568Z,3.82
2023-01-20T09:52:32.061Z,3.57
2023-01-20T09:55:04.556Z,3.69
2023-01-20T09:57:36.271Z,3.74
2023-01-20T10:00:14.370Z,3.74
2023-01-20T10:02:45.492Z,3.86
2023-01-20T10:05:18.713Z,3.89
2023-01-20T10:07:55.508Z,3.78
2023-01-20T10:10:29.320Z,3.78
2023-01-20T10:13:04.689Z,3.79
2023-01-20T10:15:35.854Z,3.83
2023-01-20T10:18:07.210Z,3.90
2023-01-20T10:20:41.957Z,3.94
2023-01-20T10:23:15.264Z,3.95
2023-01-20T10:25:46.201Z,3.86
2023-01-20T10:28:16.229Z,3.82
2023-01-20T10:30:47.291Z,3.80
2023-01-20T10:33:17.463Z,3.82
2023-01-20T10:35:48.308Z,3.92
2023-01-20T10:38:25.574Z,4.06
2023-01-20T10:40:58.227Z,4.18
2023-01-20T10:43:26.617Z,4.18
2023-01-20T10:46:17.593Z,4.19
2023-01-20T10:49:01.102Z,4.20
2023-01-20T10:51:37.481Z,4.30
2023-01-20T10:54:19.361Z,4.42
2023-01-20T10:56:53.390Z,4.50
2023-01-20T10:59:29.538Z,4.39
2023-01-20T11:02:11.792Z,4.44
2023-01-20T11:04:40.174Z,4.26
2023-01-20T11:07:16.330Z,4.14
2023-01-20T11:09:44.198Z,4.30
2023-01-20T11:12:16.876Z,4.45
2023-01-20T11:14:44.673Z,4.54
2023-01-20T11:17:18.603Z,4.52
2023-01-20T11:19:49.026Z,4.53
2023-01-20T11:22:21.197Z,4.58
2023-01-20T11:24:49.034Z,4.62
2023-01-20T11:27:20.897Z,4.73
2023-01-20T11:29:52.320Z,4.78
2023-01-20T11:32:30.256Z,4.65
2023-01-20T11:34:58.530Z,4.65
2023-01-20T11:37:27.567Z,4.71
2023-01-20T11:40:01.437Z,4.65
2023-01-20T11:42:30.611Z,4.63
2023-01-20T11:45:15.543Z,4.54
2023-01-20T11:48:00.748Z,4.65
2023-01-20T11:50:32.478Z,4.77
2023-01-20T11:53:14.343Z,4.79
2023-01-20T11:55:51.641Z,4.83
2023-01-20T11:58:21.475Z,4.91
2023-01-20T12:00:52.007Z,4.81
2023-01-20T12:03:36.896Z,4.75
2023-01-20T12:06:10.164Z,4.61
2023-01-20T12:08:48.232Z,4.56
2023-01-20T12:11:19.862Z,4.41
2023-01-20T12:14:16.331Z,4.45
2023-01-20T12:16:45.438Z,4.40
2023-01-20T12:19:19.299Z,4.45
2023-01-20T12:21:51.623Z,4.42
2023-01-20T12:24:35.324Z,4.48
2023-01-20T12:27:17.111Z,4.48
2023-01-20T12:29:45.966Z,4.51
2023-01-20T12:32:13.488Z,4.48
2023-01-20T12:34:42.343Z,4.56
2023-01-20T12:37:18.499Z,4.56
2023-01-20T12:40:04.958Z,4.58
2023-01-20T12:42:47.070Z,4.67
2023-01-20T12:45:27.740Z,4.71
2023-01-20T12:48:06.906Z,4.71
2023-01-20T12:50:49.176Z,4.76
2023-01-20T12:53:31.282Z,4.88
2023-01-20T12:56:11.903Z,4.81
2023-01-20T12:58:50.049Z,4.71
2023-01-20T13:01:38.763Z,4.71
2023-01-20T13:04:36.237Z,4.80
2023-01-20T13:07:20.687Z,4.72
2023-01-20T13:10:04.213Z,4.65
2023-01-20T13:12:41.071Z,4.76
2023-01-20T13:15:19.366Z,4.75
2023-01-20T13:18:01.200Z,4.77
2023-01-20T13:20:31.163Z,4.77
2023-01-20T13:23:06.329Z,4.74
2023-01-20T13:25:35.442Z,4.65
2023-01-20T13:28:04.015Z,4.61
2023-01-20T13:30:47.908Z,4.62
2023-01-20T13:33:19.354Z,4.82
2023-01-20T13:35:49.414Z,4.81
2023-01-20T13:38:23.714Z,4.82
2023-01-20T13:40:54.469Z,4.84
2023-01-20T13:43:52.960Z,4.90
2023-01-20T13:46:46.815Z,4.65
2023-01-20T13:49:33.312Z,4.60
2023-01-20T13:52:00.782Z,4.73
2023-01-20T13:54:48.649Z,4.87
2023-01-20T13:57:36.521Z,4.63
2023-01-20T14:00:18.809Z,4.45
2023-01-20T14:02:48.104Z,4.63
2023-01-20T14:05:24.647Z,4.79
2023-01-20T14:07:52.527Z,4.93
2023-01-20T14:10:21.456Z,4.94
2023-01-20T14:12:48.960Z,4.75
2023-01-20T14:15:37.818Z,4.73
2023-01-20T14:18:06.467Z,4.70
2023-01-20T14:20:34.050Z,4.61
2023-01-20T14:23:27.590Z,4.75
2023-01-20T14:26:01.211Z,4.74
2023-01-20T14:28:29.114Z,4.71
2023-01-20T14:31:27.885Z,4.74
2023-01-20T14:33:59.087Z,4.76
2023-01-20T14:36:30.418Z,4.77
2023-01-20T14:39:03.758Z,4.76
2023-01-20T14:41:35.742Z,4.78
2023-01-20T14:44:03.592Z,4.78
2023-01-20T14:46:33.567Z,4.78
2023-01-20T14:49:02.492Z,4.70
2023-01-20T14:51:30.289Z,4.49
2023-01-20T14:54:35.866Z,4.24
2023-01-20T14:57:20.575Z,4.10
2023-01-20T14:59:49.383Z,4.05
2023-01-20T15:02:27.172Z,4.05
2023-01-20T15:04:56.126Z,4.16
2023-01-20T15:07:25.689Z,4.26
2023-01-20T15:09:57.674Z,4.12
2023-01-20T15:12:40.175Z,4.19
2023-01-20T15:15:15.243Z,4.22
2023-01-20T15:18:04.317Z,4.24
2023-01-20T15:20:33.460Z,4.29
2023-01-20T15:23:02.068Z,4.11
2023-01-20T15:25:30.163Z,3.89
2023-01-20T15:27:59.174Z,3.83
2023-01-20T15:30:29.703Z,3.87
2023-01-20T15:32:57.736Z,3.90
2023-01-20T15:35:26.817Z,3.86
2023-01-20T15:37:55.126Z,3.93
2023-01-20T15:40:24.330Z,3.98
2023-01-20T15:42:53.273Z,3.90
2023-01-20T15:45:22.192Z,3.90
2023-01-20T15:47:49.830Z,3.86
2023-01-20T15:50:21.589Z,3.74
2023-01-20T15:52:49.738Z,3.76
2023-01-20T15:55:19.790Z,3.80
2023-01-20T15:57:51.850Z,3.80
2023-01-20T16:00:22.537Z,3.86
2023-01-20T16:02:50.326Z,3.78
2023-01-20T16:05:18.080Z,3.52
2023-01-20T16:07:47.392Z,3.45
2023-01-20T16:10:17.349Z,3.33
2023-01-20T16:12:45.509Z,3.37
2023-01-20T16:15:17.837Z,3.41
2023-01-20T16:17:46.726Z,3.31
2023-01-20T16:20:20.243Z,3.20
2023-01-20T16:22:47.792Z,3.09
2023-01-20T16:25:15.589Z,3.12
2023-01-20T16:27:43.174Z,3.13
2023-01-20T16:30:15.834Z,3.17
2023-01-20T16:32:46.050Z,3.12
2023-01-20T16:35:15.708Z,3.11
2023-01-20T16:37:45.394Z,3.01
2023-01-20T16:40:14.796Z,2.93
2023-01-20T16:42:42.520Z,2.84
2023-01-20T16:45:22.874Z,2.72
2023-01-20T16:47:50.584Z,2.83
2023-01-20T16:50:19.650Z,2.73
2023-01-20T16:52:47.208Z,2.76
2023-01-20T16:55:15.005Z,2.66
2023-01-20T16:57:43.240Z,2.79
2023-01-20T17:00:11.876Z,2.72
2023-01-20T17:02:39.901Z,2.70
2023-01-20T17:05:08.557Z,2.66
2023-01-20T17:07:37.489Z,2.62
2023-01-20T17:10:05.727Z,2.58
2023-01-20T17:12:33.358Z,2.66
2023-01-20T17:15:01.060Z,2.60
2023-01-20T17:17:28.586Z,2.60
2023-01-20T17:19:56.081Z,2.63
2023-01-20T17:22:23.535Z,2.63
2023-01-20T17:24:52.438Z,2.63
2023-01-20T17:27:19.884Z,2.50
2023-01-20T17:29:47.378Z,2.58
2023-01-20T17:32:15.948Z,2.51
2023-01-20T17:34:43.430Z,2.55
2023-01-20T17:37:10.909Z,2.51
2023-01-20T17:39:39.595Z,2.57
2023-01-20T17:42:08.467Z,2.58
2023-01-20T17:44:37.747Z,2.67
2023-01-20T17:47:05.669Z,2.88
2023-01-20T17:49:33.345Z,3.05
2023-01-20T17:52:00.879Z,3.15
2023-01-20T17:54:28.429Z,3.20
2023-01-20T17:56:55.906Z,3.25
2023-01-20T17:59:26.140Z,3.22
2023-01-20T18:01:54.291Z,3.23
2023-01-20T18:04:23.017Z,3.25
2023-01-20T18:06:50.547Z,3.23
2023-01-20T18:09:18.026Z,3.17
2023-01-20T18:11:45.588Z,3.19
2023-01-20T18:14:13.593Z,3.17
2023-01-20T18:16:42.620Z,3.09
2023-01-20T18:19:11.831Z,3.02
2023-01-20T18:21:39.745Z,2.98
2023-01-20T18:24:08.543Z,2.94
2023-01-20T18:26:38.268Z,2.96
2023-01-20T18:29:07.558Z,3.00
2023-01-20T18:31:36.309Z,2.95
2023-01-20T18:34:07.415Z,2.98
2023-01-20T18:36:36.850Z,3.01
2023-01-20T18:39:06.087Z,3.00
2023-01-20T18:41:37.897Z,2.98
2023-01-20T18:44:08.696Z,3.00
2023-01-20T18:46:36.240Z,3.03
2023-01-20T18:49:08.536Z,3.03
2023-01-20T18:51:37.076Z,3.01
2023-01-20T18:54:06.312Z,3.03
2023-01-20T18:56:34.889Z,3.03
2023-01-20T18:59:03.555Z,3.08
2023-01-20T19:01:33.753Z,3.03
2023-01-20T19:04:01.985Z,3.02
2023-01-20T19:06:34.168Z,3.01
2023-01-20T19:09:02.309Z,3.04
2023-01-20T19:11:31.561Z,3.03
2023-01-20T19:13:59.888Z,2.97
2023-01-20T19:16:32.424Z,3.00
2023-01-20T19:19:01.726Z,2.98
2023-01-20T19:21:33.042Z,2.99
2023-01-20T19:24:05.567Z,3.04
2023-01-20T19:26:38.869Z,3.01
2023-01-20T19:29:08.271Z,2.95
2023-01-20T19:31:38.374Z,3.00
2023-01-20T19:34:06.772Z,2.89
2023-01-20T19:36:36.521Z,2.90
2023-01-20T19:39:04.598Z,2.92
2023-01-20T19:41:33.301Z,2.92
2023-01-20T19:44:03.085Z,2.93
2023-01-20T19:46:32.956Z,2.95
2023-01-20T19:49:02.100Z,3.00
2023-01-20T19:51:31.091Z,2.93
2023-01-20T19:54:01.788Z,2.88
2023-01-20T19:56:31.196Z,2.85
2023-01-20T19:59:00.568Z,2.92
2023-01-20T20:01:31.656Z,2.82
2023-01-20T20:03:59.916Z,2.80
2023-01-20T20:06:29.846Z,2.82
2023-01-20T20:09:00.498Z,2.84
2023-01-20T20:11:28.037Z,2.80
2023-01-20T20:13:56.672Z,2.76
2023-01-20T20:16:26.287Z,2.73
2023-01-20T20:18:57.956Z,2.77
2023-01-20T20:21:26.318Z,2.75
2023-01-20T20:23:55.562Z,2.76
2023-01-20T20:26:26.386Z,2.69
2023-01-20T20:28:54.104Z,2.71
2023-01-20T20:31:28.655Z,2.71
2023-01-20T20:33:56.384Z,2.71
2023-01-20T20:36:23.842Z,2.68
2023-01-20T20:38:52.576Z,2.67
2023-01-20T20:41:20.316Z,2.60
2023-01-20T20:43:49.150Z,2.69
2023-01-20T20:46:17.255Z,2.68
2023-01-20T20:48:44.762Z,2.62
2023-01-20T20:51:14.395Z,2.58
2023-01-20T20:53:42.785Z,2.56
2023-01-20T20:56:12.406Z,2.48
2023-01-20T20:58:55.215Z,2.48
2023-01-20T21:01:30.122Z,2.51
2023-01-20T21:04:00.116Z,2.46
2023-01-20T21:06:27.656Z,2.43
2023-01-20T21:08:55.165Z,2.38
2023-01-20T21:11:24.002Z,2.37
2023-01-20T21:13:51.844Z,2.30
2023-01-20T21:16:22.648Z,2.22
2023-01-20T21:18:52.845Z,2.26
2023-01-20T21:21:21.148Z,2.29
2023-01-20T21:23:50.591Z,2.32
2023-01-20T21:26:18.276Z,2.27
2023-01-20T21:28:48.963Z,2.23
2023-01-20T21:31:19.014Z,2.17
2023-01-20T21:33:46.754Z,2.23
2023-01-20T21:36:15.955Z,2.24
2023-01-20T21:38:45.349Z,2.31
2023-01-20T21:41:14.345Z,2.31
2023-01-20T21:44:00.994Z,2.27
2023-01-20T21:46:32.963Z,2.19
2023-01-20T21:49:18.337Z,2.22
2023-01-20T21:52:04.831Z,2.22
2023-01-20T21:54:33.732Z,2.18
2023-01-20T21:57:02.535Z,2.21
2023-01-20T21:59:30.212Z,2.24
2023-01-20T22:01:57.735Z,2.23
2023-01-20T22:04:25.279Z,2.24
2023-01-20T22:06:54.691Z,2.22
2023-01-20T22:09:22.208Z,2.18
2023-01-20T22:11:50.118Z,2.20
2023-01-20T22:14:17.625Z,2.07
2023-01-20T22:16:45.291Z,2.19
2023-01-20T22:19:13.373Z,2.13
2023-01-20T22:21:40.925Z,2.12
2023-01-20T22:24:10.634Z,2.01
2023-01-20T22:26:38.400Z,1.99
2023-01-20T22:29:06.128Z,1.96
2023-01-20T22:31:34.232Z,1.92
2023-01-20T22:34:05.049Z,1.81
2023-01-20T22:36:33.147Z,1.84
2023-01-20T22:39:01.118Z,1.92
2023-01-20T22:41:30.242Z,1.65
2023-01-20T22:43:58.337Z,1.77
2023-01-20T22:46:27.751Z,1.66
2023-01-20T22:48:56.591Z,1.64
2023-01-20T22:51:25.949Z,1.76
2023-01-20T22:53:54.269Z,1.82
2023-01-20T22:56:23.275Z,1.89
2023-01-20T22:58:53.036Z,1.84
2023-01-20T23:01:22.363Z,1.90
2023-01-20T23:03:54.316Z,1.97
2023-01-20T23:06:22.134Z,1.90
2023-01-20T23:08:49.593Z,1.95
2023-01-20T23:11:19.092Z,1.97
2023-01-20T23:13:47.752Z,1.97
2023-01-20T23:16:18.520Z,1.86
2023-01-20T23:18:46.988Z,1.86
2023-01-20T23:21:15.492Z,1.76
2023-01-20T23:23:43.043Z,1.66
2023-01-20T23:26:14.113Z,1.50
2023-01-20T23:28:41.855Z,1.35
2023-01-20T23:31:11.605Z,1.42
2023-01-20T23:33:43.311Z,1.51
2023-01-20T23:36:13.422Z,1.51
2023-01-20T23:38:40.970Z,1.49
2023-01-20T23:41:08.495Z,1.53
2023-01-20T23:43:36.020Z,1.36
2023-01-20T23:46:06.231Z,1.32
2023-01-20T23:48:34.497Z,1.36
2023-01-20T23:51:03.840Z,1.36
2023-01-20T23:53:33.673Z,1.37
2023-01-20T23:56:01.861Z,1.35
2023-01-20T23:58:29.973Z,1.35
